sensor_id;sensor_type;location;lat;lon;timestamp;pressure;altitude;pressure_sealevel;temperature;humidity
39267;BME280;24967;51.154;13.812;2022-09-09T00:00:20;99112.13;;;16.71;78.63
39267;BME280;24967;51.154;13.812;2022-09-09T00:02:57;99101.84;;;16.81;78.07
39267;BME280;24967;51.154;13.812;2022-09-09T00:05:31;99110.41;;;16.63;78.67
39267;BME280;24967;51.154;13.812;2022-09-09T00:08:01;99110.81;;;16.60;79.08
39267;BME280;24967;51.154;13.812;2022-09-09T00:10:31;99112.22;;;16.49;79.50
39267;BME280;24967;51.154;13.812;2022-09-09T00:13:05;99107.13;;;16.61;78.34
39267;BME280;24967;51.154;13.812;2022-09-09T00:15:37;99114.94;;;16.56;78.43
39267;BME280;24967;51.154;13.812;2022-09-09T00:18:16;99112.28;;;16.63;78.41
39267;BME280;24967;51.154;13.812;2022-09-09T00:20:48;99114.31;;;16.61;78.32
39267;BME280;24967;51.154;13.812;2022-09-09T00:23:22;99109.31;;;16.51;78.64
39267;BME280;24967;51.154;13.812;2022-09-09T00:25:59;99101.53;;;16.56;78.31
39267;BME280;24967;51.154;13.812;2022-09-09T00:28:30;99108.16;;;16.67;77.75
39267;BME280;24967;51.154;13.812;2022-09-09T00:31:04;99116.50;;;16.79;77.28
39267;BME280;24967;51.154;13.812;2022-09-09T00:33:37;99106.53;;;16.72;77.18
39267;BME280;24967;51.154;13.812;2022-09-09T00:36:10;99102.59;;;16.68;77.60
39267;BME280;24967;51.154;13.812;2022-09-09T00:38:42;99100.19;;;16.80;77.09
39267;BME280;24967;51.154;13.812;2022-09-09T00:41:14;99107.06;;;16.55;77.69
39267;BME280;24967;51.154;13.812;2022-09-09T00:43:47;99102.38;;;16.63;77.57
39267;BME280;24967;51.154;13.812;2022-09-09T00:46:41;99099.41;;;16.52;78.02
39267;BME280;24967;51.154;13.812;2022-09-09T00:49:20;99103.13;;;16.51;77.76
39267;BME280;24967;51.154;13.812;2022-09-09T00:51:58;99116.59;;;16.57;77.69
39267;BME280;24967;51.154;13.812;2022-09-09T00:54:31;99110.81;;;16.60;77.57
39267;BME280;24967;51.154;13.812;2022-09-09T00:57:13;99107.28;;;16.53;77.55
39267;BME280;24967;51.154;13.812;2022-09-09T00:59:47;99112.16;;;16.43;77.95
39267;BME280;24967;51.154;13.812;2022-09-09T01:02:25;99102.69;;;16.40;78.06
39267;BME280;24967;51.154;13.812;2022-09-09T01:04:58;99105.56;;;16.39;78.15
39267;BME280;24967;51.154;13.812;2022-09-09T01:07:26;99107.41;;;16.38;78.17
39267;BME280;24967;51.154;13.812;2022-09-09T01:09:55;99104.34;;;16.41;77.93
39267;BME280;24967;51.154;13.812;2022-09-09T01:12:32;99111.06;;;16.31;78.24
39267;BME280;24967;51.154;13.812;2022-09-09T01:15:09;99112.56;;;16.40;77.98
39267;BME280;24967;51.154;13.812;2022-09-09T01:17:46;99106.34;;;16.33;78.05
39267;BME280;24967;51.154;13.812;2022-09-09T01:20:20;99113.75;;;16.31;78.08
39267;BME280;24967;51.154;13.812;2022-09-09T01:23:00;99121.38;;;16.27;78.37
39267;BME280;24967;51.154;13.812;2022-09-09T01:26:04;99121.69;;;16.11;78.88
39267;BME280;24967;51.154;13.812;2022-09-09T01:28:35;99114.09;;;16.14;78.96
39267;BME280;24967;51.154;13.812;2022-09-09T01:31:04;99117.16;;;16.11;78.85
39267;BME280;24967;51.154;13.812;2022-09-09T01:33:32;99115.56;;;16.17;78.71
39267;BME280;24967;51.154;13.812;2022-09-09T01:36:01;99117.22;;;16.24;78.21
39267;BME280;24967;51.154;13.812;2022-09-09T01:38:32;99124.41;;;16.17;78.22
39267;BME280;24967;51.154;13.812;2022-09-09T01:41:01;99119.69;;;16.19;78.19
39267;BME280;24967;51.154;13.812;2022-09-09T01:43:29;99113.13;;;16.22;78.00
39267;BME280;24967;51.154;13.812;2022-09-09T01:45:59;99109.38;;;16.16;78.09
39267;BME280;24967;51.154;13.812;2022-09-09T01:48:28;99106.44;;;16.11;78.21
39267;BME280;24967;51.154;13.812;2022-09-09T01:50:54;99114.47;;;16.11;78.12
39267;BME280;24967;51.154;13.812;2022-09-09T01:53:21;99099.44;;;16.10;78.18
39267;BME280;24967;51.154;13.812;2022-09-09T01:55:56;99103.31;;;16.08;78.00
39267;BME280;24967;51.154;13.812;2022-09-09T01:58:34;99104.16;;;16.08;77.96
39267;BME280;24967;51.154;13.812;2022-09-09T02:01:09;99102.53;;;16.14;77.85
39267;BME280;24967;51.154;13.812;2022-09-09T02:03:40;99103.56;;;16.13;77.72
39267;BME280;24967;51.154;13.812;2022-09-09T02:06:19;99108.06;;;16.12;77.66
39267;BME280;24967;51.154;13.812;2022-09-09T02:08:53;99098.38;;;16.11;77.77
39267;BME280;24967;51.154;13.812;2022-09-09T02:11:23;99097.53;;;16.04;77.88
39267;BME280;24967;51.154;13.812;2022-09-09T02:13:54;99106.16;;;15.99;77.96
39267;BME280;24967;51.154;13.812;2022-09-09T02:16:25;99106.38;;;15.98;78.08
39267;BME280;24967;51.154;13.812;2022-09-09T02:18:55;99104.69;;;15.97;77.98
39267;BME280;24967;51.154;13.812;2022-09-09T02:21:25;99105.50;;;15.97;78.15
39267;BME280;24967;51.154;13.812;2022-09-09T02:23:56;99110.88;;;15.97;78.09
39267;BME280;24967;51.154;13.812;2022-09-09T02:26:25;99108.41;;;15.96;77.91
39267;BME280;24967;51.154;13.812;2022-09-09T02:28:56;99111.06;;;15.96;78.00
39267;BME280;24967;51.154;13.812;2022-09-09T02:31:24;99106.28;;;15.91;78.05
39267;BME280;24967;51.154;13.812;2022-09-09T02:33:55;99113.50;;;15.91;77.98
39267;BME280;24967;51.154;13.812;2022-09-09T02:36:26;99111.44;;;15.86;78.01
39267;BME280;24967;51.154;13.812;2022-09-09T02:38:56;99109.97;;;15.84;78.08
39267;BME280;24967;51.154;13.812;2022-09-09T02:41:27;99109.53;;;15.80;78.19
39267;BME280;24967;51.154;13.812;2022-09-09T02:43:58;99112.22;;;15.80;78.07
39267;BME280;24967;51.154;13.812;2022-09-09T02:46:36;99104.31;;;15.72;78.17
39267;BME280;24967;51.154;13.812;2022-09-09T02:49:09;99105.34;;;15.71;78.17
39267;BME280;24967;51.154;13.812;2022-09-09T02:51:40;99113.25;;;15.64;78.47
39267;BME280;24967;51.154;13.812;2022-09-09T02:54:17;99111.75;;;15.55;78.66
39267;BME280;24967;51.154;13.812;2022-09-09T02:56:50;99115.19;;;15.49;78.98
39267;BME280;24967;51.154;13.812;2022-09-09T02:59:21;99111.91;;;15.47;79.05
39267;BME280;24967;51.154;13.812;2022-09-09T03:01:47;99118.03;;;15.41;79.26
39267;BME280;24967;51.154;13.812;2022-09-09T03:04:14;99111.63;;;15.42;79.31
39267;BME280;24967;51.154;13.812;2022-09-09T03:06:41;99110.16;;;15.39;79.27
39267;BME280;24967;51.154;13.812;2022-09-09T03:09:08;99109.84;;;15.27;79.74
39267;BME280;24967;51.154;13.812;2022-09-09T03:11:35;99110.56;;;15.15;80.46
39267;BME280;24967;51.154;13.812;2022-09-09T03:14:03;99110.00;;;15.19;80.50
39267;BME280;24967;51.154;13.812;2022-09-09T03:16:32;99111.38;;;15.15;80.63
39267;BME280;24967;51.154;13.812;2022-09-09T03:18:59;99111.75;;;15.12;80.63
39267;BME280;24967;51.154;13.812;2022-09-09T03:21:26;99110.94;;;15.11;80.90
39267;BME280;24967;51.154;13.812;2022-09-09T03:23:52;99118.13;;;15.11;80.77
39267;BME280;24967;51.154;13.812;2022-09-09T03:26:19;99120.06;;;15.17;80.67
39267;BME280;24967;51.154;13.812;2022-09-09T03:28:46;99120.06;;;15.17;80.48
39267;BME280;24967;51.154;13.812;2022-09-09T03:31:13;99116.28;;;15.11;80.37
39267;BME280;24967;51.154;13.812;2022-09-09T03:33:41;99119.56;;;15.07;80.61
39267;BME280;24967;51.154;13.812;2022-09-09T03:36:08;99112.53;;;15.06;80.70
39267;BME280;24967;51.154;13.812;2022-09-09T03:38:35;99110.50;;;15.08;80.79
39267;BME280;24967;51.154;13.812;2022-09-09T03:41:02;99116.25;;;14.90;81.81
39267;BME280;24967;51.154;13.812;2022-09-09T03:43:31;99117.84;;;14.84;82.09
39267;BME280;24967;51.154;13.812;2022-09-09T03:45:58;99110.53;;;14.93;82.01
39267;BME280;24967;51.154;13.812;2022-09-09T03:48:25;99112.56;;;14.91;82.17
39267;BME280;24967;51.154;13.812;2022-09-09T03:50:55;99107.84;;;14.93;82.10
39267;BME280;24967;51.154;13.812;2022-09-09T03:53:23;99110.53;;;14.93;82.11
39267;BME280;24967;51.154;13.812;2022-09-09T03:55:52;99110.31;;;14.95;81.67
39267;BME280;24967;51.154;13.812;2022-09-09T03:58:20;99112.00;;;14.96;81.57
39267;BME280;24967;51.154;13.812;2022-09-09T04:00:53;99114.31;;;14.99;81.40
39267;BME280;24967;51.154;13.812;2022-09-09T04:03:20;99113.00;;;14.95;81.49
39267;BME280;24967;51.154;13.812;2022-09-09T04:05:48;99113.47;;;14.98;81.26
39267;BME280;24967;51.154;13.812;2022-09-09T04:08:16;99116.06;;;14.92;80.96
39267;BME280;24967;51.154;13.812;2022-09-09T04:10:44;99116.25;;;14.90;80.98
39267;BME280;24967;51.154;13.812;2022-09-09T04:13:11;99113.38;;;14.92;80.95
39267;BME280;24967;51.154;13.812;2022-09-09T04:15:39;99112.38;;;14.93;80.92
39267;BME280;24967;51.154;13.812;2022-09-09T04:18:05;99116.34;;;14.97;80.55
39267;BME280;24967;51.154;13.812;2022-09-09T04:20:32;99121.41;;;14.92;80.69
39267;BME280;24967;51.154;13.812;2022-09-09T04:22:58;99119.97;;;14.89;80.62
39267;BME280;24967;51.154;13.812;2022-09-09T04:25:26;99117.47;;;14.87;80.82
39267;BME280;24967;51.154;13.812;2022-09-09T04:27:53;99119.31;;;14.87;80.53
39267;BME280;24967;51.154;13.812;2022-09-09T04:30:20;99119.75;;;14.91;80.49
39267;BME280;24967;51.154;13.812;2022-09-09T04:32:47;99121.63;;;14.90;80.72
39267;BME280;24967;51.154;13.812;2022-09-09T04:35:14;99118.13;;;14.89;80.61
39267;BME280;24967;51.154;13.812;2022-09-09T04:37:41;99117.19;;;14.82;81.24
39267;BME280;24967;51.154;13.812;2022-09-09T04:40:08;99121.16;;;14.86;81.16
39267;BME280;24967;51.154;13.812;2022-09-09T04:42:36;99133.06;;;14.84;81.69
39267;BME280;24967;51.154;13.812;2022-09-09T04:45:04;99128.28;;;14.79;81.95
39267;BME280;24967;51.154;13.812;2022-09-09T04:47:32;99126.91;;;14.83;81.93
39267;BME280;24967;51.154;13.812;2022-09-09T04:49:59;99119.03;;;14.82;82.41
39267;BME280;24967;51.154;13.812;2022-09-09T04:52:26;99120.44;;;14.78;82.73
39267;BME280;24967;51.154;13.812;2022-09-09T04:54:52;99125.22;;;14.82;82.81
39267;BME280;24967;51.154;13.812;2022-09-09T04:57:19;99124.94;;;14.92;82.83
39267;BME280;24967;51.154;13.812;2022-09-09T04:59:47;99128.72;;;14.98;82.43
39267;BME280;24967;51.154;13.812;2022-09-09T05:02:14;99125.66;;;15.01;82.49
39267;BME280;24967;51.154;13.812;2022-09-09T05:04:40;99130.81;;;15.02;82.32
39267;BME280;24967;51.154;13.812;2022-09-09T05:07:07;99125.84;;;14.99;82.47
39267;BME280;24967;51.154;13.812;2022-09-09T05:09:33;99127.41;;;14.94;83.11
39267;BME280;24967;51.154;13.812;2022-09-09T05:12:00;99128.63;;;14.91;83.92
39267;BME280;24967;51.154;13.812;2022-09-09T05:14:27;99125.94;;;14.91;84.47
39267;BME280;24967;51.154;13.812;2022-09-09T05:16:56;99132.59;;;14.95;84.84
39267;BME280;24967;51.154;13.812;2022-09-09T05:19:23;99128.59;;;15.06;84.63
39267;BME280;24967;51.154;13.812;2022-09-09T05:21:49;99140.59;;;15.10;84.62
39267;BME280;24967;51.154;13.812;2022-09-09T05:24:16;99133.81;;;15.14;84.84
39267;BME280;24967;51.154;13.812;2022-09-09T05:26:43;99124.75;;;15.15;85.34
39267;BME280;24967;51.154;13.812;2022-09-09T05:29:10;99130.00;;;15.23;85.26
39267;BME280;24967;51.154;13.812;2022-09-09T05:31:36;99123.94;;;15.15;86.28
39267;BME280;24967;51.154;13.812;2022-09-09T05:34:05;99130.94;;;15.16;86.26
39267;BME280;24967;51.154;13.812;2022-09-09T05:36:31;99134.09;;;15.19;86.29
39267;BME280;24967;51.154;13.812;2022-09-09T05:38:58;99133.94;;;15.27;86.61
39267;BME280;24967;51.154;13.812;2022-09-09T05:41:24;99144.09;;;15.32;86.91
39267;BME280;24967;51.154;13.812;2022-09-09T05:43:51;99146.91;;;15.45;86.60
39267;BME280;24967;51.154;13.812;2022-09-09T05:46:19;99154.19;;;15.73;85.74
39267;BME280;24967;51.154;13.812;2022-09-09T05:48:47;99152.47;;;15.87;85.06
39267;BME280;24967;51.154;13.812;2022-09-09T05:51:18;99147.56;;;15.97;85.21
39267;BME280;24967;51.154;13.812;2022-09-09T05:53:47;99146.47;;;16.13;84.28
39267;BME280;24967;51.154;13.812;2022-09-09T05:56:15;99140.72;;;16.16;84.17
39267;BME280;24967;51.154;13.812;2022-09-09T05:58:42;99151.69;;;16.27;84.56
39267;BME280;24967;51.154;13.812;2022-09-09T06:01:11;99145.75;;;16.32;84.78
39267;BME280;24967;51.154;13.812;2022-09-09T06:03:40;99152.41;;;16.43;84.43
39267;BME280;24967;51.154;13.812;2022-09-09T06:06:09;99161.97;;;16.52;84.43
39267;BME280;24967;51.154;13.812;2022-09-09T06:08:38;99165.56;;;16.72;83.39
39267;BME280;24967;51.154;13.812;2022-09-09T06:11:06;99159.59;;;16.70;82.66
39267;BME280;24967;51.154;13.812;2022-09-09T06:13:33;99166.66;;;16.78;82.28
39267;BME280;24967;51.154;13.812;2022-09-09T06:16:00;99160.25;;;16.79;82.26
39267;BME280;24967;51.154;13.812;2022-09-09T06:18:27;99162.75;;;16.81;82.19
39267;BME280;24967;51.154;13.812;2022-09-09T06:20:56;99161.97;;;16.87;82.27
39267;BME280;24967;51.154;13.812;2022-09-09T06:23:23;99163.03;;;16.99;82.05
39267;BME280;24967;51.154;13.812;2022-09-09T06:25:51;99165.56;;;17.07;81.59
39267;BME280;24967;51.154;13.812;2022-09-09T06:28:26;99169.91;;;17.15;81.45
39267;BME280;24967;51.154;13.812;2022-09-09T06:30:57;99167.69;;;17.25;81.02
39267;BME280;24967;51.154;13.812;2022-09-09T06:33:24;99167.22;;;17.15;81.91
39267;BME280;24967;51.154;13.812;2022-09-09T06:35:51;99168.66;;;17.17;82.27
39267;BME280;24967;51.154;13.812;2022-09-09T06:38:18;99174.69;;;17.26;82.05
39267;BME280;24967;51.154;13.812;2022-09-09T06:40:52;99170.56;;;17.30;82.11
39267;BME280;24967;51.154;13.812;2022-09-09T06:43:19;99167.69;;;17.25;80.67
39267;BME280;24967;51.154;13.812;2022-09-09T06:45:53;99167.28;;;17.35;81.49
39267;BME280;24967;51.154;13.812;2022-09-09T06:48:19;99173.69;;;17.34;82.65
39267;BME280;24967;51.154;13.812;2022-09-09T06:50:46;99166.88;;;17.38;83.26
39267;BME280;24967;51.154;13.812;2022-09-09T06:53:15;99157.78;;;17.46;83.56
39267;BME280;24967;51.154;13.812;2022-09-09T06:55:44;99160.69;;;17.57;84.67
39267;BME280;24967;51.154;13.812;2022-09-09T06:58:12;99161.13;;;17.61;85.06
39267;BME280;24967;51.154;13.812;2022-09-09T07:00:39;99165.53;;;17.89;83.51
39267;BME280;24967;51.154;13.812;2022-09-09T07:03:05;99168.19;;;17.95;84.31
39267;BME280;24967;51.154;13.812;2022-09-09T07:05:31;99168.59;;;18.05;83.44
39267;BME280;24967;51.154;13.812;2022-09-09T07:07:58;99167.34;;;18.15;82.93
39267;BME280;24967;51.154;13.812;2022-09-09T07:10:25;99165.25;;;18.30;83.58
39267;BME280;24967;51.154;13.812;2022-09-09T07:12:51;99168.97;;;18.36;84.82
39267;BME280;24967;51.154;13.812;2022-09-09T07:15:19;99156.94;;;18.51;81.10
39267;BME280;24967;51.154;13.812;2022-09-09T07:17:48;99162.28;;;18.65;82.53
39267;BME280;24967;51.154;13.812;2022-09-09T07:20:15;99161.25;;;18.79;79.58
39267;BME280;24967;51.154;13.812;2022-09-09T07:22:41;99158.25;;;18.94;77.35
39267;BME280;24967;51.154;13.812;2022-09-09T07:25:08;99161.94;;;19.06;75.50
39267;BME280;24967;51.154;13.812;2022-09-09T07:27:35;99158.84;;;19.09;75.91
39267;BME280;24967;51.154;13.812;2022-09-09T07:30:01;99159.03;;;19.08;75.69
39267;BME280;24967;51.154;13.812;2022-09-09T07:32:30;99160.78;;;19.27;75.42
39267;BME280;24967;51.154;13.812;2022-09-09T07:34:56;99155.34;;;19.40;75.29
39267;BME280;24967;51.154;13.812;2022-09-09T07:37:23;99156.09;;;19.48;73.10
39267;BME280;24967;51.154;13.812;2022-09-09T07:39:50;99152.91;;;19.64;74.11
39267;BME280;24967;51.154;13.812;2022-09-09T07:42:17;99153.47;;;19.73;71.39
39267;BME280;24967;51.154;13.812;2022-09-09T07:44:44;99158.41;;;19.76;69.88
39267;BME280;24967;51.154;13.812;2022-09-09T07:47:10;99155.41;;;19.90;69.60
39267;BME280;24967;51.154;13.812;2022-09-09T07:49:38;99159.88;;;20.03;71.01
39267;BME280;24967;51.154;13.812;2022-09-09T07:52:06;99162.44;;;20.17;69.94
39267;BME280;24967;51.154;13.812;2022-09-09T07:54:32;99162.28;;;20.11;71.48
39267;BME280;24967;51.154;13.812;2022-09-09T07:56:58;99164.72;;;20.38;69.94
39267;BME280;24967;51.154;13.812;2022-09-09T07:59:25;99165.09;;;20.42;71.13
39267;BME280;24967;51.154;13.812;2022-09-09T08:01:53;99158.78;;;20.48;67.01
39267;BME280;24967;51.154;13.812;2022-09-09T08:04:20;99164.53;;;20.76;71.35
39267;BME280;24967;51.154;13.812;2022-09-09T08:06:50;99170.53;;;20.97;69.25
39267;BME280;24967;51.154;13.812;2022-09-09T08:09:18;99168.06;;;21.25;67.38
39267;BME280;24967;51.154;13.812;2022-09-09T08:11:46;99160.09;;;21.31;65.09
39267;BME280;24967;51.154;13.812;2022-09-09T08:14:13;99169.50;;;21.28;63.96
39267;BME280;24967;51.154;13.812;2022-09-09T08:16:42;99164.81;;;21.35;64.64
39267;BME280;24967;51.154;13.812;2022-09-09T08:19:09;99170.16;;;21.42;63.44
39267;BME280;24967;51.154;13.812;2022-09-09T08:21:37;99175.78;;;21.70;64.07
39267;BME280;24967;51.154;13.812;2022-09-09T08:24:07;99175.31;;;21.73;63.42
39267;BME280;24967;51.154;13.812;2022-09-09T08:26:37;99172.81;;;21.72;63.36
39267;BME280;24967;51.154;13.812;2022-09-09T08:29:06;99169.22;;;21.90;62.29
39267;BME280;24967;51.154;13.812;2022-09-09T08:31:34;99179.53;;;21.69;63.48
39267;BME280;24967;51.154;13.812;2022-09-09T08:34:03;99175.34;;;21.85;63.33
39267;BME280;24967;51.154;13.812;2022-09-09T08:36:31;99186.41;;;21.54;63.41
39267;BME280;24967;51.154;13.812;2022-09-09T08:39:00;99188.34;;;21.65;63.82
39267;BME280;24967;51.154;13.812;2022-09-09T08:44:29;99195.69;;;22.00;62.82
39267;BME280;24967;51.154;13.812;2022-09-09T08:47:01;99194.03;;;21.87;65.31
39267;BME280;24967;51.154;13.812;2022-09-09T08:49:47;99188.63;;;21.87;64.68
39267;BME280;24967;51.154;13.812;2022-09-09T08:52:25;99194.25;;;21.73;66.12
39267;BME280;24967;51.154;13.812;2022-09-09T08:54:55;99195.38;;;21.66;67.81
39267;BME280;24967;51.154;13.812;2022-09-09T08:57:26;99193.84;;;21.58;68.36
39267;BME280;24967;51.154;13.812;2022-09-09T08:59:54;99196.09;;;21.61;68.02
39267;BME280;24967;51.154;13.812;2022-09-09T09:02:25;99204.00;;;21.75;69.89
39267;BME280;24967;51.154;13.812;2022-09-09T09:05:01;99204.03;;;21.86;70.97
39267;BME280;24967;51.154;13.812;2022-09-09T09:07:43;99201.41;;;21.68;68.13
39267;BME280;24967;51.154;13.812;2022-09-09T09:10:24;99195.38;;;21.66;66.92
39267;BME280;24967;51.154;13.812;2022-09-09T09:12:57;99195.91;;;21.86;70.45
39267;BME280;24967;51.154;13.812;2022-09-09T09:15:30;99193.56;;;21.90;69.04
39267;BME280;24967;51.154;13.812;2022-09-09T09:17:57;99190.19;;;22.06;68.46
39267;BME280;24967;51.154;13.812;2022-09-09T09:20:32;99206.00;;;22.21;67.07
39267;BME280;24967;51.154;13.812;2022-09-09T09:23:02;99208.69;;;22.33;66.75
39267;BME280;24967;51.154;13.812;2022-09-09T09:25:33;99213.97;;;22.16;62.64
39267;BME280;24967;51.154;13.812;2022-09-09T09:28:08;99210.09;;;22.12;61.91
39267;BME280;24967;51.154;13.812;2022-09-09T09:30:46;99213.47;;;21.95;64.04
39267;BME280;24967;51.154;13.812;2022-09-09T09:33:20;99219.91;;;21.83;65.33
39267;BME280;24967;51.154;13.812;2022-09-09T09:35:49;99226.13;;;21.83;63.93
39267;BME280;24967;51.154;13.812;2022-09-09T09:38:18;99230.03;;;21.57;66.18
39267;BME280;24967;51.154;13.812;2022-09-09T09:40:49;99231.63;;;21.65;66.33
39267;BME280;24967;51.154;13.812;2022-09-09T09:43:25;99231.47;;;21.60;67.87
39267;BME280;24967;51.154;13.812;2022-09-09T09:45:53;99239.19;;;21.44;68.15
39267;BME280;24967;51.154;13.812;2022-09-09T09:48:19;99250.34;;;21.48;68.13
39267;BME280;24967;51.154;13.812;2022-09-09T09:50:51;99241.88;;;21.44;69.11
39267;BME280;24967;51.154;13.812;2022-09-09T09:53:21;99229.56;;;21.48;70.29
39267;BME280;24967;51.154;13.812;2022-09-09T09:55:53;99232.84;;;21.50;72.32
39267;BME280;24967;51.154;13.812;2022-09-09T09:58:22;99234.81;;;21.43;72.42
39267;BME280;24967;51.154;13.812;2022-09-09T10:00:50;99224.63;;;21.57;72.63
39267;BME280;24967;51.154;13.812;2022-09-09T10:03:26;99220.56;;;21.66;73.19
39267;BME280;24967;51.154;13.812;2022-09-09T10:05:53;99233.19;;;21.84;73.66
39267;BME280;24967;51.154;13.812;2022-09-09T10:08:22;99230.41;;;21.91;74.50
39267;BME280;24967;51.154;13.812;2022-09-09T10:11:02;99227.16;;;22.12;72.75
39267;BME280;24967;51.154;13.812;2022-09-09T10:13:39;99223.97;;;22.15;74.42
39267;BME280;24967;51.154;13.812;2022-09-09T10:16:21;99216.59;;;22.23;71.74
39267;BME280;24967;51.154;13.812;2022-09-09T10:18:58;99213.41;;;22.61;69.04
39267;BME280;24967;51.154;13.812;2022-09-09T10:21:36;99211.88;;;22.77;66.22
39267;BME280;24967;51.154;13.812;2022-09-09T10:24:22;99204.06;;;22.80;68.24
39267;BME280;24967;51.154;13.812;2022-09-09T10:26:55;99212.81;;;22.82;67.16
39267;BME280;24967;51.154;13.812;2022-09-09T10:29:51;99204.19;;;23.09;65.66
39267;BME280;24967;51.154;13.812;2022-09-09T10:32:38;99207.78;;;23.15;63.90
39267;BME280;24967;51.154;13.812;2022-09-09T10:35:12;99210.31;;;23.04;64.72
39267;BME280;24967;51.154;13.812;2022-09-09T10:38:10;99202.91;;;23.28;65.44
39267;BME280;24967;51.154;13.812;2022-09-09T10:40:43;99199.22;;;23.06;64.95
39267;BME280;24967;51.154;13.812;2022-09-09T10:43:22;99198.38;;;23.05;64.69
39267;BME280;24967;51.154;13.812;2022-09-09T10:46:03;99195.31;;;23.14;65.65
39267;BME280;24967;51.154;13.812;2022-09-09T10:48:46;99200.03;;;23.18;64.24
39267;BME280;24967;51.154;13.812;2022-09-09T10:51:23;99187.38;;;23.24;62.77
39267;BME280;24967;51.154;13.812;2022-09-09T10:54:03;99188.81;;;23.43;62.74
39267;BME280;24967;51.154;13.812;2022-09-09T10:56:33;99179.28;;;23.41;60.42
39267;BME280;24967;51.154;13.812;2022-09-09T10:59:05;99192.75;;;23.36;60.76
39267;BME280;24967;51.154;13.812;2022-09-09T11:01:39;99180.97;;;23.59;61.50
39267;BME280;24967;51.154;13.812;2022-09-09T11:04:13;99168.69;;;23.85;63.00
39267;BME280;24967;51.154;13.812;2022-09-09T11:06:46;99169.50;;;24.02;61.49
39267;BME280;24967;51.154;13.812;2022-09-09T11:09:19;99173.44;;;24.11;61.18
39267;BME280;24967;51.154;13.812;2022-09-09T11:11:51;99167.00;;;24.34;59.17
39267;BME280;24967;51.154;13.812;2022-09-09T11:14:21;99167.44;;;24.26;59.26
39267;BME280;24967;51.154;13.812;2022-09-09T11:16:55;99164.81;;;24.48;58.28
39267;BME280;24967;51.154;13.812;2022-09-09T11:19:27;99166.00;;;24.40;58.90
39267;BME280;24967;51.154;13.812;2022-09-09T11:21:57;99160.19;;;24.32;58.56
39267;BME280;24967;51.154;13.812;2022-09-09T11:24:29;99151.09;;;24.21;57.53
39267;BME280;24967;51.154;13.812;2022-09-09T11:27:01;99152.03;;;24.32;58.57
39267;BME280;24967;51.154;13.812;2022-09-09T11:32:48;99157.41;;;23.93;61.92
39267;BME280;24967;51.154;13.812;2022-09-09T11:35:30;99160.69;;;23.78;62.75
39267;BME280;24967;51.154;13.812;2022-09-09T11:38:13;99159.09;;;23.65;64.15
39267;BME280;24967;51.154;13.812;2022-09-09T11:40:43;99149.72;;;23.56;63.72
39267;BME280;24967;51.154;13.812;2022-09-09T11:43:12;99154.38;;;23.27;64.37
39267;BME280;24967;51.154;13.812;2022-09-09T11:45:41;99153.72;;;23.08;65.75
39267;BME280;24967;51.154;13.812;2022-09-09T11:48:23;99169.22;;;22.72;68.38
39267;BME280;24967;51.154;13.812;2022-09-09T11:50:58;99177.94;;;22.74;69.22
39267;BME280;24967;51.154;13.812;2022-09-09T11:53:25;99173.91;;;22.89;70.16
39267;BME280;24967;51.154;13.812;2022-09-09T11:56:10;99171.69;;;22.74;71.21
39267;BME280;24967;51.154;13.812;2022-09-09T11:58:55;99150.03;;;22.62;73.08
39267;BME280;24967;51.154;13.812;2022-09-09T12:01:33;99155.31;;;22.69;73.43
39267;BME280;24967;51.154;13.812;2022-09-09T12:04:18;99143.94;;;22.67;74.03
39267;BME280;24967;51.154;13.812;2022-09-09T12:06:50;99135.41;;;22.75;75.15
39267;BME280;24967;51.154;13.812;2022-09-09T12:09:25;99136.97;;;22.71;76.09
39267;BME280;24967;51.154;13.812;2022-09-09T12:11:53;99144.09;;;22.89;74.88
39267;BME280;24967;51.154;13.812;2022-09-09T12:14:36;99139.81;;;23.04;75.67
39267;BME280;24967;51.154;13.812;2022-09-09T12:17:17;99130.56;;;22.77;74.65
39267;BME280;24967;51.154;13.812;2022-09-09T12:19:47;99127.09;;;22.93;75.49
39267;BME280;24967;51.154;13.812;2022-09-09T12:22:21;99121.59;;;22.88;74.86
39267;BME280;24967;51.154;13.812;2022-09-09T12:24:56;99120.19;;;22.97;76.69
39267;BME280;24967;51.154;13.812;2022-09-09T12:27:31;99122.84;;;23.09;72.74
39267;BME280;24967;51.154;13.812;2022-09-09T12:30:03;99125.16;;;23.17;67.86
39267;BME280;24967;51.154;13.812;2022-09-09T12:32:31;99122.31;;;23.24;66.07
39267;BME280;24967;51.154;13.812;2022-09-09T12:35:02;99115.94;;;23.64;69.44
39267;BME280;24967;51.154;13.812;2022-09-09T12:37:33;99114.00;;;23.76;68.36
39267;BME280;24967;51.154;13.812;2022-09-09T12:40:03;99115.25;;;23.85;68.40
39267;BME280;24967;51.154;13.812;2022-09-09T12:42:31;99119.41;;;24.10;68.13
39267;BME280;24967;51.154;13.812;2022-09-09T12:44:59;99119.13;;;24.11;66.74
39267;BME280;24967;51.154;13.812;2022-09-09T12:47:34;99108.69;;;24.20;66.47
39267;BME280;24967;51.154;13.812;2022-09-09T12:50:04;99111.69;;;24.40;66.21
39267;BME280;24967;51.154;13.812;2022-09-09T12:52:34;99104.03;;;24.37;65.02
39267;BME280;24967;51.154;13.812;2022-09-09T12:55:04;99103.22;;;24.37;62.95
39267;BME280;24967;51.154;13.812;2022-09-09T12:57:36;99104.81;;;24.33;62.74
39267;BME280;24967;51.154;13.812;2022-09-09T13:00:10;99105.75;;;24.60;63.06
39267;BME280;24967;51.154;13.812;2022-09-09T13:02:45;99102.38;;;24.75;64.85
39267;BME280;24967;51.154;13.812;2022-09-09T13:05:17;99097.50;;;24.77;63.79
39267;BME280;24967;51.154;13.812;2022-09-09T13:07:44;99088.69;;;25.14;65.09
39267;BME280;24967;51.154;13.812;2022-09-09T13:10:20;99089.97;;;25.33;63.41
39267;BME280;24967;51.154;13.812;2022-09-09T13:12:48;99083.59;;;25.23;62.07
39267;BME280;24967;51.154;13.812;2022-09-09T13:15:22;99086.50;;;25.43;61.42